createdAt,value
2018-11-23T00:00:04.280Z,98346.23
2018-11-23T00:00:35.873Z,98344.09
2018-11-23T00:01:07.478Z,98338.56
2018-11-23T00:01:39.081Z,98346.23
2018-11-23T00:02:10.659Z,98341.17
2018-11-23T00:02:42.263Z,98341.98
2018-11-23T00:03:13.856Z,98346.66
2018-11-23T00:03:45.474Z,98348.37
2018-11-23T00:04:17.069Z,98346.27
2018-11-23T00:04:48.656Z,98347.95
2018-11-23T00:05:20.248Z,98346.70
2018-11-23T00:05:51.851Z,98348.84
2018-11-23T00:06:23.441Z,98352.20
2018-11-23T00:06:55.028Z,98348.80
2018-11-23T00:07:26.616Z,98352.14
2018-11-23T00:07:58.195Z,98346.98
2018-11-23T00:08:29.799Z,98348.20
2018-11-23T00:09:01.414Z,98352.42
2018-11-23T00:09:33.005Z,98351.13
2018-11-23T00:10:04.594Z,98350.28
2018-11-23T00:10:36.180Z,98349.85
2018-11-23T00:11:07.780Z,98350.66
2018-11-23T00:11:39.368Z,98346.34
2018-11-23T00:12:10.971Z,98346.30
2018-11-23T00:12:42.550Z,98347.19
2018-11-23T00:13:14.137Z,98349.31
2018-11-23T00:13:45.753Z,98350.59
2018-11-23T00:14:17.341Z,98351.41
2018-11-23T00:14:48.942Z,98346.71
2018-11-23T00:15:20.548Z,98349.27
2018-11-23T00:15:52.159Z,98349.70
2018-11-23T00:16:23.745Z,98348.84
2018-11-23T00:16:55.326Z,98352.68
2018-11-23T00:17:26.919Z,98348.84
2018-11-23T00:17:58.524Z,98347.13
2018-11-23T00:18:30.130Z,98352.67
2018-11-23T00:19:01.760Z,98353.06
2018-11-23T00:19:33.357Z,98353.52
2018-11-23T00:20:04.949Z,98351.39
2018-11-23T00:20:36.554Z,98351.39
2018-11-23T00:21:08.160Z,98351.39
2018-11-23T00:21:39.752Z,98352.20
2018-11-23T00:22:11.356Z,98351.77
2018-11-23T00:22:42.962Z,98344.95
2018-11-23T00:23:14.557Z,98350.92
2018-11-23T00:23:46.196Z,98312.09
2018-11-23T00:24:17.792Z,98346.27
2018-11-23T00:24:49.380Z,98342.41
2018-11-23T00:25:20.983Z,98340.27
2018-11-23T00:25:52.913Z,98335.20
2018-11-23T00:26:24.514Z,98342.83
2018-11-23T00:26:56.109Z,98341.55
2018-11-23T00:27:28.701Z,98342.02
2018-11-23T00:28:00.293Z,98342.87
2018-11-23T00:28:31.903Z,98343.30
2018-11-23T00:29:03.539Z,98348.41
2018-11-23T00:29:35.143Z,98342.02
2018-11-23T00:30:06.737Z,98346.27
2018-11-23T00:30:38.324Z,98310.88
2018-11-23T00:31:09.917Z,98341.18
2018-11-23T00:31:41.519Z,98341.60
2018-11-23T00:32:13.127Z,98349.73
2018-11-23T00:32:44.731Z,98350.59
2018-11-23T00:33:16.335Z,98349.73
2018-11-23T00:33:47.991Z,98348.85
2018-11-23T00:34:19.580Z,98353.11
2018-11-23T00:34:51.159Z,98345.48
2018-11-23T00:35:22.745Z,98345.91
2018-11-23T00:35:54.333Z,98348.46
2018-11-23T00:36:25.945Z,98343.78
2018-11-23T00:36:57.569Z,98341.66
2018-11-23T00:37:29.161Z,98344.63
2018-11-23T00:38:00.762Z,98318.16
2018-11-23T00:38:32.364Z,98345.48
2018-11-23T00:39:03.992Z,98347.62
2018-11-23T00:39:35.574Z,98348.05
2018-11-23T00:40:07.174Z,98347.20
2018-11-23T00:40:38.773Z,98350.13
2018-11-23T00:41:10.377Z,98346.33
2018-11-23T00:41:41.970Z,98348.42
2018-11-23T00:42:13.575Z,98350.11
2018-11-23T00:42:45.173Z,98353.91
2018-11-23T00:43:16.760Z,98348.80
2018-11-23T00:43:48.391Z,98347.08
2018-11-23T00:44:20.026Z,98347.50
2018-11-23T00:44:51.625Z,98355.14
2018-11-23T00:45:23.222Z,98350.43
2018-11-23T00:45:54.823Z,98351.30
2018-11-23T00:46:26.427Z,98353.80
2018-11-23T00:46:58.018Z,98349.63
2018-11-23T00:47:29.630Z,98353.85
2018-11-23T00:48:01.211Z,98355.56
2018-11-23T00:48:32.809Z,98354.33
2018-11-23T00:49:04.443Z,98351.77
2018-11-23T00:49:36.044Z,98352.63
2018-11-23T00:50:07.641Z,98353.48
2018-11-23T00:50:39.228Z,98347.55
2018-11-23T00:51:10.817Z,98358.17
2018-11-23T00:51:42.419Z,98349.70
2018-11-23T00:52:14.003Z,98355.28
2018-11-23T00:52:45.602Z,98356.14
2018-11-23T00:53:17.206Z,98352.78
2018-11-23T00:53:48.800Z,98351.09
2018-11-23T00:54:20.413Z,98356.24
2018-11-23T00:54:51.995Z,98350.28
2018-11-23T00:55:23.600Z,98351.13
2018-11-23T00:55:55.198Z,98350.71
2018-11-23T00:56:26.803Z,98353.31
2018-11-23T00:56:58.382Z,98348.20
2018-11-23T00:57:29.972Z,98351.20
2018-11-23T00:58:01.564Z,98352.08
2018-11-23T00:58:33.157Z,98353.79
2018-11-23T00:59:04.791Z,98355.08
2018-11-23T00:59:36.395Z,98377.23
2018-11-23T01:00:07.984Z,98352.95
2018-11-23T01:00:39.579Z,98349.55
2018-11-23T01:01:11.169Z,98350.81
2018-11-23T01:01:42.753Z,98347.36
2018-11-23T01:02:14.360Z,98347.78
2018-11-23T01:02:45.970Z,98353.65
2018-11-23T01:03:17.597Z,98345.91
2018-11-23T01:03:49.198Z,98357.04
2018-11-23T01:04:20.812Z,98352.45
2018-11-23T01:04:52.396Z,98356.31
2018-11-23T01:05:23.991Z,98352.19
2018-11-23T01:05:55.603Z,98355.66
2018-11-23T01:06:27.202Z,98353.52
2018-11-23T01:06:58.793Z,98359.91
2018-11-23T01:07:30.395Z,98353.52
2018-11-23T01:08:02.003Z,98359.48
2018-11-23T01:08:33.613Z,98358.63
2018-11-23T01:09:05.232Z,98353.48
2018-11-23T01:09:36.872Z,98355.61
2018-11-23T01:10:08.474Z,98347.50
2018-11-23T01:10:40.066Z,98356.03
2018-11-23T01:11:11.656Z,98356.03
2018-11-23T01:11:43.244Z,98351.35
2018-11-23T01:12:14.842Z,98361.14
2018-11-23T01:12:46.439Z,98355.61
2018-11-23T01:13:18.045Z,98356.04
2018-11-23T01:13:49.622Z,98353.91
2018-11-23T01:14:21.341Z,98354.80
2018-11-23T01:14:52.929Z,98348.41
2018-11-23T01:15:24.517Z,98348.84
2018-11-23T01:15:56.118Z,98347.56
2018-11-23T01:16:27.699Z,98345.01
2018-11-23T01:16:59.289Z,98347.99
2018-11-23T01:17:30.871Z,98344.59
2018-11-23T01:18:02.468Z,98346.75
2018-11-23T01:18:34.065Z,98344.20
2018-11-23T01:19:06.668Z,98343.77
2018-11-23T01:19:38.269Z,98345.48
2018-11-23T01:20:09.856Z,98345.05
2018-11-23T01:20:41.439Z,98341.18
2018-11-23T01:21:13.029Z,98343.36
2018-11-23T01:21:44.616Z,98346.33
2018-11-23T01:22:16.224Z,98342.07
2018-11-23T01:22:47.805Z,98345.48
2018-11-23T01:23:19.393Z,98349.31
2018-11-23T01:23:50.981Z,98341.22
2018-11-23T01:24:22.596Z,98338.67
2018-11-23T01:24:54.199Z,98306.23
2018-11-23T01:25:25.807Z,98340.36
2018-11-23T01:25:57.407Z,98345.48
2018-11-23T01:26:29.001Z,98346.34
2018-11-23T01:27:00.593Z,98338.24
2018-11-23T01:27:32.175Z,98338.67
2018-11-23T01:28:03.761Z,98342.50
2018-11-23T01:28:35.373Z,98336.12
2018-11-23T01:29:07.015Z,98337.83
2018-11-23T01:29:38.599Z,98338.72
2018-11-23T01:30:10.185Z,98338.30
2018-11-23T01:30:41.777Z,98339.56
2018-11-23T01:31:13.374Z,98336.58
2018-11-23T01:31:44.955Z,98332.71
2018-11-23T01:32:16.545Z,98335.73
2018-11-23T01:32:48.133Z,98335.27
2018-11-23T01:33:19.725Z,98334.78
2018-11-23T01:33:51.314Z,98333.45
2018-11-23T01:34:22.932Z,98331.31
2018-11-23T01:34:54.517Z,98341.02
2018-11-23T01:35:26.122Z,98338.89
2018-11-23T01:35:57.712Z,98334.20
2018-11-23T01:36:29.301Z,98332.06
2018-11-23T01:37:00.881Z,98337.59
2018-11-23T01:37:32.482Z,98334.19
2018-11-23T01:38:04.088Z,98336.28
2018-11-23T01:38:35.695Z,98339.68
2018-11-23T01:39:07.326Z,98337.55
2018-11-23T01:39:38.907Z,98337.98
2018-11-23T01:40:10.492Z,98333.72
2018-11-23T01:40:42.071Z,98335.42
2018-11-23T01:41:13.679Z,98337.98
2018-11-23T01:41:45.280Z,98334.98
2018-11-23T01:42:16.883Z,98334.09
2018-11-23T01:42:48.477Z,98339.25
2018-11-23T01:43:20.074Z,98339.26
2018-11-23T01:43:51.682Z,98335.04
2018-11-23T01:44:23.301Z,98335.91
2018-11-23T01:44:54.906Z,98335.48
2018-11-23T01:45:26.514Z,98338.09
2018-11-23T01:45:58.105Z,98336.00
2018-11-23T01:46:29.697Z,98332.16
2018-11-23T01:47:01.289Z,98334.30
2018-11-23T01:47:32.883Z,98333.45
2018-11-23T01:48:04.487Z,98335.16
2018-11-23T01:48:36.081Z,98333.50
2018-11-23T01:49:07.751Z,98331.80
2018-11-23T01:49:39.343Z,98329.66
2018-11-23T01:50:10.954Z,98331.80
2018-11-23T01:50:42.545Z,98333.94
2018-11-23T01:51:14.151Z,98337.34
2018-11-23T01:51:45.744Z,98339.91
2018-11-23T01:52:17.347Z,98332.28
2018-11-23T01:52:48.937Z,98333.55
2018-11-23T01:53:20.539Z,98333.55
2018-11-23T01:53:52.133Z,98331.42
2018-11-23T01:54:23.812Z,98330.14
2018-11-23T01:54:55.419Z,98328.02
2018-11-23T01:55:27.023Z,98333.55
2018-11-23T01:55:58.612Z,98330.56
2018-11-23T01:56:30.195Z,98298.56
2018-11-23T01:57:01.801Z,98328.02
2018-11-23T01:57:33.393Z,98328.88
2018-11-23T01:58:04.971Z,98327.59
2018-11-23T01:58:36.571Z,98328.02
2018-11-23T01:59:08.198Z,98328.88
2018-11-23T01:59:39.790Z,98326.31
2018-11-23T02:00:11.385Z,98325.50
2018-11-23T02:00:42.975Z,98324.66
2018-11-23T02:01:14.550Z,98323.80
2018-11-23T02:01:46.152Z,98321.67
2018-11-23T02:02:17.754Z,98325.52
2018-11-23T02:02:49.335Z,98322.10
2018-11-23T02:03:20.925Z,98314.86
2018-11-23T02:03:52.528Z,98319.03
2018-11-23T02:04:24.141Z,98314.38
2018-11-23T02:04:55.729Z,98319.88
2018-11-23T02:05:27.321Z,98311.36
2018-11-23T02:05:58.903Z,98318.16
2018-11-23T02:06:30.503Z,98314.32
2018-11-23T02:07:02.093Z,98314.71
2018-11-23T02:07:33.693Z,98313.43
2018-11-23T02:08:05.289Z,98314.70
2018-11-23T02:08:36.880Z,98307.52
2018-11-23T02:09:08.511Z,98315.98
2018-11-23T02:09:40.105Z,98315.14
2018-11-23T02:10:11.707Z,98311.34
2018-11-23T02:10:43.313Z,98315.98
2018-11-23T02:11:14.901Z,98317.69
2018-11-23T02:11:46.489Z,98314.28
2018-11-23T02:12:18.081Z,98316.40
2018-11-23T02:12:49.674Z,98316.83
2018-11-23T02:13:21.265Z,98317.69
2018-11-23T02:13:52.856Z,98318.49
2018-11-23T02:14:24.459Z,98312.95
2018-11-23T02:14:56.063Z,98318.95
2018-11-23T02:15:27.671Z,98317.22
2018-11-23T02:15:59.255Z,98317.67
2018-11-23T02:16:30.849Z,98317.27
2018-11-23T02:17:02.454Z,98317.27
2018-11-23T02:17:34.049Z,98309.59
2018-11-23T02:18:05.647Z,98316.40
2018-11-23T02:18:37.242Z,98311.30
2018-11-23T02:19:08.873Z,98310.44
2018-11-23T02:19:40.495Z,98311.30
2018-11-23T02:20:12.095Z,98313.84
2018-11-23T02:20:43.702Z,98317.69
2018-11-23T02:21:15.306Z,98311.67
2018-11-23T02:21:46.882Z,98314.66
2018-11-23T02:22:18.480Z,98313.80
2018-11-23T02:22:50.060Z,98311.30
2018-11-23T02:23:21.649Z,98312.16
2018-11-23T02:23:53.251Z,98317.31
2018-11-23T02:24:24.895Z,98308.80
2018-11-23T02:24:56.489Z,98312.63
2018-11-23T02:25:28.071Z,98310.92
2018-11-23T02:25:59.675Z,98313.01
2018-11-23T02:26:31.255Z,98314.32
2018-11-23T02:27:02.848Z,98315.14
2018-11-23T02:27:34.437Z,98317.27
2018-11-23T02:28:06.042Z,98315.17
2018-11-23T02:28:37.640Z,98313.90
2018-11-23T02:29:09.215Z,98310.48
2018-11-23T02:29:40.824Z,98312.20
2018-11-23T02:30:12.413Z,98281.48
2018-11-23T02:30:44.029Z,98307.51
2018-11-23T02:31:15.635Z,98308.75
2018-11-23T02:31:47.224Z,98312.05
2018-11-23T02:32:18.800Z,98312.46
2018-11-23T02:32:50.403Z,98312.41
2018-11-23T02:33:21.982Z,98306.45
2018-11-23T02:33:53.568Z,98310.28
2018-11-23T02:34:25.161Z,98309.86
2018-11-23T02:34:56.766Z,98303.47
2018-11-23T02:35:28.371Z,98301.77
2018-11-23T02:35:59.961Z,98303.45
2018-11-23T02:36:31.558Z,98306.44
2018-11-23T02:37:03.144Z,98303.45
2018-11-23T02:37:34.746Z,98310.70
2018-11-23T02:38:06.353Z,98299.20
2018-11-23T02:38:37.952Z,98344.00
2018-11-23T02:39:09.555Z,98302.61
2018-11-23T02:39:41.158Z,98307.30
2018-11-23T02:40:12.743Z,98304.75
2018-11-23T02:40:44.348Z,98303.47
2018-11-23T02:41:15.940Z,98304.70
2018-11-23T02:41:47.546Z,98308.14
2018-11-23T02:42:19.150Z,98302.13
2018-11-23T02:42:50.737Z,98300.90
2018-11-23T02:43:22.339Z,98299.63
2018-11-23T02:43:53.936Z,98292.03
2018-11-23T02:44:25.524Z,98302.13
2018-11-23T02:44:57.164Z,98300.00
2018-11-23T02:45:28.766Z,98302.98
2018-11-23T02:46:00.363Z,98301.70
2018-11-23T02:46:31.962Z,98301.70
2018-11-23T02:47:03.571Z,98300.42
2018-11-23T02:47:35.173Z,98298.30
2018-11-23T02:48:06.765Z,98305.12
2018-11-23T02:48:38.371Z,98295.73
2018-11-23T02:49:09.968Z,98297.48
2018-11-23T02:49:41.544Z,98298.78
2018-11-23T02:50:13.144Z,98294.94
2018-11-23T02:50:44.740Z,98295.80
2018-11-23T02:51:16.345Z,98296.64
2018-11-23T02:51:47.946Z,98298.34
2018-11-23T02:52:19.538Z,98294.95
2018-11-23T02:52:51.125Z,98299.63
2018-11-23T02:53:22.717Z,98295.36
2018-11-23T02:53:54.305Z,98301.75
2018-11-23T02:54:25.907Z,98300.48
2018-11-23T02:54:57.497Z,98296.65
2018-11-23T02:55:29.100Z,98297.94
2018-11-23T02:56:00.699Z,98299.20
2018-11-23T02:56:32.299Z,98305.59
2018-11-23T02:57:03.907Z,98302.19
2018-11-23T02:57:35.487Z,98302.19
2018-11-23T02:58:07.087Z,98304.31
2018-11-23T02:58:38.691Z,98305.17
2018-11-23T02:59:10.280Z,98271.09
2018-11-23T02:59:41.869Z,98306.51
2018-11-23T03:00:13.490Z,98295.44
2018-11-23T03:00:45.095Z,98299.25
2018-11-23T03:01:16.685Z,98298.88
2018-11-23T03:01:48.293Z,98309.92
2018-11-23T03:02:19.894Z,98304.84
2018-11-23T03:02:51.494Z,98304.00
2018-11-23T03:03:23.089Z,98302.77
2018-11-23T03:03:54.693Z,98306.61
2018-11-23T03:04:26.285Z,98298.56
2018-11-23T03:04:57.886Z,98299.00
2018-11-23T03:05:29.501Z,98301.56
2018-11-23T03:06:01.101Z,98298.58
2018-11-23T03:06:32.692Z,98302.45
2018-11-23T03:07:04.281Z,98299.48
2018-11-23T03:07:35.883Z,98303.32
2018-11-23T03:08:07.492Z,98301.65
2018-11-23T03:08:39.080Z,98303.32
2018-11-23T03:09:10.733Z,98301.22
2018-11-23T03:09:42.339Z,98296.11
2018-11-23T03:10:13.928Z,98305.48
2018-11-23T03:10:45.561Z,98297.41
2018-11-23T03:11:17.148Z,98300.86
2018-11-23T03:11:48.733Z,98295.75
2018-11-23T03:12:20.334Z,98301.30
2018-11-23T03:12:51.926Z,98301.72
2018-11-23T03:13:23.522Z,98300.06
2018-11-23T03:13:55.123Z,98301.34
2018-11-23T03:14:26.707Z,98300.95
2018-11-23T03:14:58.301Z,98300.95
2018-11-23T03:15:29.878Z,98304.38
2018-11-23T03:16:01.498Z,98307.35
2018-11-23T03:16:33.103Z,98299.69
2018-11-23T03:17:04.711Z,98303.52
2018-11-23T03:17:36.315Z,98302.28
2018-11-23T03:18:07.904Z,98306.12
2018-11-23T03:18:39.492Z,98301.02
2018-11-23T03:19:11.108Z,98304.47
2018-11-23T03:19:42.715Z,98304.90
2018-11-23T03:20:14.317Z,98306.65
2018-11-23T03:20:45.937Z,98310.05
2018-11-23T03:21:17.529Z,98305.80
2018-11-23T03:21:49.107Z,98309.69
2018-11-23T03:22:20.693Z,98310.97
2018-11-23T03:22:52.298Z,98305.00
2018-11-23T03:23:23.888Z,98302.07
2018-11-23T03:23:55.518Z,98304.21
2018-11-23T03:24:27.127Z,98308.09
2018-11-23T03:24:58.720Z,98309.80
2018-11-23T03:25:30.294Z,98311.91
2018-11-23T03:26:01.899Z,98309.78
2018-11-23T03:26:33.485Z,98306.72
2018-11-23T03:27:05.090Z,98312.25
2018-11-23T03:27:36.698Z,98310.12
2018-11-23T03:28:08.279Z,98313.11
2018-11-23T03:28:39.868Z,98304.62
2018-11-23T03:29:11.461Z,98310.17
2018-11-23T03:29:43.048Z,98308.94
2018-11-23T03:30:14.657Z,98312.78
2018-11-23T03:30:46.299Z,98306.00
2018-11-23T03:31:17.909Z,98309.84
2018-11-23T03:31:49.519Z,98310.66
2018-11-23T03:32:21.108Z,98311.06
2018-11-23T03:32:52.700Z,98310.64
2018-11-23T03:33:24.290Z,98313.67
2018-11-23T03:33:55.867Z,98314.95
2018-11-23T03:34:27.464Z,98317.50
2018-11-23T03:34:59.054Z,98313.25
2018-11-23T03:35:30.659Z,98310.26
2018-11-23T03:36:02.281Z,98317.50
2018-11-23T03:36:33.868Z,98314.48
2018-11-23T03:37:05.461Z,98308.99
2018-11-23T03:37:37.039Z,98318.73
2018-11-23T03:38:08.643Z,98311.53
2018-11-23T03:38:40.244Z,98310.64
2018-11-23T03:39:11.836Z,98314.84
2018-11-23T03:39:43.426Z,98313.09
2018-11-23T03:40:15.035Z,98307.98
2018-11-23T03:40:46.685Z,98315.08
2018-11-23T03:41:18.282Z,98311.08
2018-11-23T03:41:49.887Z,98314.87
2018-11-23T03:42:21.478Z,98307.30
2018-11-23T03:42:53.081Z,98317.63
2018-11-23T03:43:24.673Z,98308.27
2018-11-23T03:43:56.279Z,98310.87
2018-11-23T03:44:27.859Z,98310.06
2018-11-23T03:44:59.454Z,98309.64
2018-11-23T03:45:31.067Z,98312.24
2018-11-23T03:46:02.675Z,98312.67
2018-11-23T03:46:34.280Z,98308.84
2018-11-23T03:47:05.891Z,98318.25
2018-11-23T03:47:37.481Z,98309.36
2018-11-23T03:48:09.088Z,98312.30
2018-11-23T03:48:40.695Z,98307.19
2018-11-23T03:49:12.367Z,98319.12
2018-11-23T03:49:43.947Z,98311.49
2018-11-23T03:50:15.546Z,98306.80
2018-11-23T03:50:47.165Z,98310.55
2018-11-23T03:51:18.789Z,98315.13
2018-11-23T03:51:50.388Z,98313.27
2018-11-23T03:52:21.971Z,98310.13
2018-11-23T03:52:53.575Z,98317.59
2018-11-23T03:53:25.165Z,98312.36
2018-11-23T03:53:56.758Z,98311.77
2018-11-23T03:54:28.334Z,98314.80
2018-11-23T03:54:59.939Z,98316.30
2018-11-23T03:55:31.544Z,98322.00
2018-11-23T03:56:03.181Z,98315.23
2018-11-23T03:56:34.785Z,98308.16
2018-11-23T03:57:06.395Z,98319.50
2018-11-23T03:57:37.990Z,98322.23
2018-11-23T03:58:09.607Z,98320.17
2018-11-23T03:58:41.211Z,98324.87
2018-11-23T03:59:12.817Z,98321.92
2018-11-23T03:59:44.409Z,98322.35
2018-11-23T04:00:17.420Z,98319.81
2018-11-23T04:00:47.645Z,98321.09
2018-11-23T04:01:19.333Z,98314.34
2018-11-23T04:01:50.934Z,98321.08
2018-11-23T04:02:22.539Z,98324.37
2018-11-23T04:02:54.129Z,98322.98
2018-11-23T04:03:25.717Z,98318.95
2018-11-23T04:03:57.319Z,98310.66
2018-11-23T04:04:28.899Z,98314.20
2018-11-23T04:05:00.503Z,98310.94
2018-11-23T04:05:32.097Z,98313.22
2018-11-23T04:06:03.688Z,98309.56
2018-11-23T04:06:35.292Z,98313.53
2018-11-23T04:07:06.883Z,98309.49
2018-11-23T04:07:38.486Z,98308.02
2018-11-23T04:08:10.076Z,98306.54
2018-11-23T04:08:41.665Z,98306.38
2018-11-23T04:09:13.259Z,98309.17
2018-11-23T04:09:44.863Z,98309.43
2018-11-23T04:10:16.471Z,98307.98
2018-11-23T04:10:48.071Z,98309.54
2018-11-23T04:11:19.657Z,98309.41
2018-11-23T04:11:51.272Z,98311.00
2018-11-23T04:12:22.884Z,98305.33
2018-11-23T04:12:54.490Z,98303.98
2018-11-23T04:13:26.090Z,98307.71
2018-11-23T04:13:57.685Z,98304.62
2018-11-23T04:14:29.298Z,98301.97
2018-11-23T04:15:00.902Z,98306.55
2018-11-23T04:15:32.489Z,98308.16
2018-11-23T04:16:04.076Z,98306.81
2018-11-23T04:16:35.835Z,98316.52
2018-11-23T04:17:07.418Z,98309.16
2018-11-23T04:17:39.008Z,98302.30
2018-11-23T04:18:10.601Z,98303.89
2018-11-23T04:18:42.188Z,98304.27
2018-11-23T04:19:13.776Z,98306.34
2018-11-23T04:19:45.354Z,98303.31
2018-11-23T04:20:16.940Z,98302.44
2018-11-23T04:20:48.529Z,98298.55
2018-11-23T04:21:20.116Z,98308.29
2018-11-23T04:21:51.752Z,98304.41
2018-11-23T04:22:23.348Z,98293.27
2018-11-23T04:22:54.937Z,98297.47
2018-11-23T04:23:26.532Z,98301.25
2018-11-23T04:23:58.124Z,98272.23
2018-11-23T04:24:29.718Z,98295.27
2018-11-23T04:25:01.291Z,98299.48
2018-11-23T04:25:32.867Z,98296.48
2018-11-23T04:26:04.443Z,98296.05
2018-11-23T04:26:36.043Z,98295.20
2018-11-23T04:27:07.657Z,98293.43
2018-11-23T04:27:39.268Z,98296.84
2018-11-23T04:28:10.849Z,98300.25
2018-11-23T04:28:42.433Z,98298.12
2018-11-23T04:29:14.032Z,98301.47
2018-11-23T04:29:45.624Z,98301.05
2018-11-23T04:30:17.208Z,98299.77
2018-11-23T04:30:48.805Z,98299.34
2018-11-23T04:31:20.393Z,98304.46
2018-11-23T04:31:52.029Z,98300.63
2018-11-23T04:32:23.622Z,98295.94
2018-11-23T04:32:55.682Z,98295.51
2018-11-23T04:33:27.283Z,98290.83
2018-11-23T04:33:58.859Z,98297.65
2018-11-23T04:34:30.452Z,98301.95
2018-11-23T04:35:02.044Z,98299.35
2018-11-23T04:35:33.626Z,98298.06
2018-11-23T04:36:05.231Z,98295.56
2018-11-23T04:36:36.837Z,98282.94
2018-11-23T04:37:08.460Z,98295.99
2018-11-23T04:37:40.058Z,98300.27
2018-11-23T04:38:11.667Z,98304.99
2018-11-23T04:38:43.261Z,98303.30
2018-11-23T04:39:14.867Z,98303.73
2018-11-23T04:39:46.460Z,98301.22
2018-11-23T04:40:18.063Z,98297.83
2018-11-23T04:40:49.652Z,98302.94
2018-11-23T04:41:21.256Z,98294.00
2018-11-23T04:41:52.831Z,98300.87
2018-11-23T04:42:24.443Z,98296.61
2018-11-23T04:42:56.068Z,98289.43
2018-11-23T04:43:27.673Z,98292.46
2018-11-23T04:43:59.270Z,98296.32
2018-11-23T04:44:30.871Z,98299.34
2018-11-23T04:45:02.447Z,98295.14
2018-11-23T04:45:34.047Z,98294.34
2018-11-23T04:46:05.655Z,98295.67
2018-11-23T04:46:37.238Z,98301.23
2018-11-23T04:47:08.852Z,98297.45
2018-11-23T04:47:40.458Z,98296.64
2018-11-23T04:48:12.049Z,98299.25
2018-11-23T04:48:43.640Z,98300.16
2018-11-23T04:49:15.230Z,98288.66
2018-11-23T04:49:46.816Z,98291.69
2018-11-23T04:50:18.404Z,98289.57
2018-11-23T04:50:49.987Z,98291.32
2018-11-23T04:51:21.566Z,98295.17
2018-11-23T04:51:53.152Z,98295.22
2018-11-23T04:52:24.794Z,98292.28
2018-11-23T04:52:56.398Z,98293.19
2018-11-23T04:53:27.997Z,98291.49
2018-11-23T04:53:59.603Z,98294.48
2018-11-23T04:54:31.193Z,98288.13
2018-11-23T04:55:02.776Z,98290.27
2018-11-23T04:55:34.354Z,98294.15
2018-11-23T04:56:05.954Z,98289.09
2018-11-23T04:56:37.555Z,98288.67
2018-11-23T04:57:09.144Z,98284.46
2018-11-23T04:57:40.753Z,98289.62
2018-11-23T04:58:12.341Z,98250.81
2018-11-23T04:58:43.930Z,98281.11
2018-11-23T04:59:15.540Z,98286.69
2018-11-23T04:59:47.129Z,98285.46
2018-11-23T05:00:18.717Z,98285.05
2018-11-23T05:00:50.304Z,98284.28
2018-11-23T05:01:21.899Z,98285.95
2018-11-23T05:01:53.482Z,98284.28
2018-11-23T05:02:25.094Z,98283.44
2018-11-23T05:02:56.694Z,98289.02
2018-11-23T05:03:28.291Z,98266.67
2018-11-23T05:03:59.895Z,98288.23
2018-11-23T05:04:31.485Z,98291.67
2018-11-23T05:05:03.076Z,98288.70
2018-11-23T05:05:34.679Z,98285.77
2018-11-23T05:06:06.299Z,98282.34
2018-11-23T05:06:37.890Z,98284.09
2018-11-23T05:07:09.462Z,98282.85
2018-11-23T05:07:41.064Z,98289.25
2018-11-23T05:08:12.664Z,98288.44
2018-11-23T05:08:44.248Z,98288.88
2018-11-23T05:09:15.850Z,98291.03
2018-11-23T05:09:47.437Z,98287.21
2018-11-23T05:10:19.024Z,98288.92
2018-11-23T05:10:50.614Z,98291.09
2018-11-23T05:11:22.217Z,98298.77
2018-11-23T05:11:53.799Z,98297.95
2018-11-23T05:12:25.419Z,98294.16
2018-11-23T05:12:57.004Z,98298.00
2018-11-23T05:13:28.610Z,98297.58
2018-11-23T05:14:00.219Z,98297.19
2018-11-23T05:14:31.822Z,98304.00
2018-11-23T05:15:03.427Z,98298.05
2018-11-23T05:15:35.035Z,98294.22
2018-11-23T05:16:06.629Z,98297.62
2018-11-23T05:16:38.222Z,98298.09
2018-11-23T05:17:09.803Z,98302.77
2018-11-23T05:17:41.406Z,98298.09
2018-11-23T05:18:12.999Z,98290.90
2018-11-23T05:18:44.656Z,98296.86
2018-11-23T05:19:16.254Z,98301.97
2018-11-23T05:19:47.841Z,98292.65
2018-11-23T05:20:19.430Z,98291.80
2018-11-23T05:20:51.031Z,98291.80
2018-11-23T05:21:22.625Z,98294.40
2018-11-23T05:21:54.212Z,98293.97
2018-11-23T05:22:25.845Z,98293.13
2018-11-23T05:22:57.428Z,98294.83
2018-11-23T05:23:29.048Z,98291.85
2018-11-23T05:24:00.625Z,98289.34
2018-11-23T05:24:32.216Z,98294.03
2018-11-23T05:25:03.819Z,98288.53
2018-11-23T05:25:35.418Z,98296.62
2018-11-23T05:26:07.014Z,98298.74
2018-11-23T05:26:38.591Z,98293.64
2018-11-23T05:27:10.182Z,98288.95
2018-11-23T05:27:41.797Z,98292.80
2018-11-23T05:28:13.388Z,98291.94
2018-11-23T05:28:44.977Z,98289.38
2018-11-23T05:29:16.551Z,98291.52
2018-11-23T05:29:49.044Z,98293.22
2018-11-23T05:30:19.777Z,98290.66
2018-11-23T05:30:51.360Z,98292.75
2018-11-23T05:31:22.953Z,98287.64
2018-11-23T05:31:54.575Z,98265.69
2018-11-23T05:32:26.167Z,98286.78
2018-11-23T05:32:57.804Z,98296.96
2018-11-23T05:33:29.396Z,98293.13
2018-11-23T05:34:00.995Z,98287.17
2018-11-23T05:34:32.602Z,98291.84
2018-11-23T05:35:04.222Z,98291.80
2018-11-23T05:35:35.812Z,98288.41
2018-11-23T05:36:07.389Z,98289.25
2018-11-23T05:36:38.970Z,98293.45
2018-11-23T05:37:10.561Z,98307.08
2018-11-23T05:37:42.193Z,98297.28
2018-11-23T05:38:13.776Z,98293.84
2018-11-23T05:38:45.381Z,98295.97
2018-11-23T05:39:16.971Z,98292.60
2018-11-23T05:39:48.570Z,98297.23
2018-11-23T05:40:20.161Z,98292.55
2018-11-23T05:40:51.966Z,98296.39
2018-11-23T05:41:23.539Z,98294.65
2018-11-23T05:41:55.144Z,98296.34
2018-11-23T05:42:26.732Z,98292.09
2018-11-23T05:43:04.317Z,98294.22
2018-11-23T05:43:29.988Z,98292.08
2018-11-23T05:44:01.600Z,98294.22
2018-11-23T05:44:33.194Z,98295.48
2018-11-23T05:45:04.781Z,98292.08
2018-11-23T05:45:36.358Z,98298.86
2018-11-23T05:46:07.953Z,98303.11
2018-11-23T05:46:39.559Z,98299.28
2018-11-23T05:47:11.154Z,98301.83
2018-11-23T05:47:42.743Z,98298.42
2018-11-23T05:48:14.367Z,98307.33
2018-11-23T05:48:45.959Z,98301.78
2018-11-23T05:49:17.539Z,98305.19
2018-11-23T05:49:49.129Z,98304.76
2018-11-23T05:50:20.731Z,98310.29
2018-11-23T05:50:52.326Z,98302.20
2018-11-23T05:51:23.940Z,98307.70
2018-11-23T05:51:55.523Z,98309.44
2018-11-23T05:52:27.108Z,98308.59
2018-11-23T05:52:58.751Z,98305.19
2018-11-23T05:53:30.377Z,98309.45
2018-11-23T05:54:01.964Z,98306.89
2018-11-23T05:54:33.558Z,98305.19
2018-11-23T05:55:05.145Z,98310.72
2018-11-23T05:55:36.730Z,98315.78
2018-11-23T05:56:08.331Z,98313.70
2018-11-23T05:56:39.925Z,98313.23
2018-11-23T05:57:11.517Z,98302.20
2018-11-23T05:57:43.119Z,98303.91
2018-11-23T05:58:14.733Z,98301.83
2018-11-23T05:58:46.321Z,98305.19
2018-11-23T05:59:17.918Z,98306.47
2018-11-23T05:59:49.507Z,98304.34
2018-11-23T06:00:21.115Z,98306.03
2018-11-23T06:00:52.708Z,98308.98
2018-11-23T06:01:24.296Z,98306.42
2018-11-23T06:01:55.888Z,98307.31
2018-11-23T06:02:27.476Z,98298.38
2018-11-23T06:02:59.050Z,98303.91
2018-11-23T06:03:30.644Z,98299.27
2018-11-23T06:04:02.247Z,98300.50
2018-11-23T06:04:33.862Z,98299.23
2018-11-23T06:05:05.457Z,98297.11
2018-11-23T06:05:37.064Z,98302.64
2018-11-23T06:06:08.657Z,98302.64
2018-11-23T06:06:42.458Z,98302.22
2018-11-23T06:07:11.895Z,98303.48
2018-11-23T06:07:43.471Z,98307.75
2018-11-23T06:08:15.065Z,98305.19
2018-11-23T06:08:46.672Z,98303.48
2018-11-23T06:09:18.261Z,98304.34
2018-11-23T06:09:49.863Z,98303.06
2018-11-23T06:10:21.457Z,98304.77
2018-11-23T06:10:53.054Z,98300.98